createdAt,value
2022-12-12T00:00:41.730Z,96.69
2022-12-12T00:03:26.468Z,96.29
2022-12-12T00:05:55.212Z,95.98
2022-12-12T00:08:22.145Z,95.92
2022-12-12T00:10:49.440Z,95.99
2022-12-12T00:13:16.302Z,96.28
2022-12-12T00:15:43.449Z,96.29
2022-12-12T00:18:10.301Z,96.33
2022-12-12T00:20:37.488Z,96.01
2022-12-12T00:23:04.698Z,95.76
2022-12-12T00:25:32.167Z,95.94
2022-12-12T00:28:00.533Z,96.18
2022-12-12T00:30:27.725Z,96.04
2022-12-12T00:32:54.517Z,95.75
2022-12-12T00:35:21.966Z,95.89
2022-12-12T00:37:49.125Z,95.91
2022-12-12T00:40:16.339Z,96.38
2022-12-12T00:42:43.165Z,95.92
2022-12-12T00:45:11.261Z,96.13
2022-12-12T00:47:38.282Z,95.84
2022-12-12T00:50:05.940Z,95.69
2022-12-12T00:52:32.810Z,95.80
2022-12-12T00:54:59.892Z,95.89
2022-12-12T00:57:26.847Z,96.05
2022-12-12T00:59:53.995Z,96.26
2022-12-12T01:02:24.961Z,96.31
2022-12-12T01:04:55.362Z,95.75
2022-12-12T01:07:22.262Z,95.77
2022-12-12T01:09:49.445Z,95.98
2022-12-12T01:12:16.222Z,96.40
2022-12-12T01:14:43.507Z,96.13
2022-12-12T01:17:10.398Z,96.61
2022-12-12T01:19:37.531Z,97.35
2022-12-12T01:22:04.372Z,97.23
2022-12-12T01:24:31.628Z,97.27
2022-12-12T01:26:58.486Z,96.85
2022-12-12T01:29:25.582Z,96.34
2022-12-12T01:31:53.047Z,97.13
2022-12-12T01:34:20.268Z,97.36
2022-12-12T01:36:47.255Z,97.37
2022-12-12T01:39:14.487Z,97.52
2022-12-12T01:41:43.206Z,97.16
2022-12-12T01:44:59.350Z,97.16
2022-12-12T01:47:26.514Z,96.93
2022-12-12T01:50:04.140Z,97.64
2022-12-12T01:52:43.654Z,97.76
2022-12-12T01:55:17.506Z,98.09
2022-12-12T01:57:49.607Z,97.52
2022-12-12T02:00:17.042Z,97.99
2022-12-12T02:02:46.257Z,97.76
2022-12-12T02:05:37.258Z,97.23
2022-12-12T02:08:06.300Z,96.42
2022-12-12T02:10:33.899Z,96.89
2022-12-12T02:13:05.927Z,96.47
2022-12-12T02:15:43.092Z,97.20
2022-12-12T02:18:43.517Z,96.97
2022-12-12T02:21:25.879Z,96.70
2022-12-12T02:24:15.750Z,96.45
2022-12-12T02:27:32.071Z,97.28
2022-12-12T02:30:16.554Z,97.39
2022-12-12T02:32:50.840Z,97.32
2022-12-12T02:35:51.755Z,97.31
2022-12-12T02:38:34.113Z,96.94
2022-12-12T02:41:29.278Z,97.13
2022-12-12T02:44:17.260Z,97.07
2022-12-12T02:46:52.094Z,96.74
2022-12-12T02:49:28.783Z,96.76
2022-12-12T02:51:57.847Z,97.21
2022-12-12T02:54:25.313Z,97.17
2022-12-12T02:56:58.313Z,97.54
2022-12-12T02:59:33.702Z,96.99
2022-12-12T03:02:25.413Z,97.23
2022-12-12T03:05:26.154Z,97.04
2022-12-12T03:08:23.862Z,97.49
2022-12-12T03:11:05.505Z,97.28
2022-12-12T03:13:55.219Z,97.49
2022-12-12T03:16:44.856Z,97.10
2022-12-12T03:19:17.595Z,97.38
2022-12-12T03:22:06.419Z,97.84
2022-12-12T03:24:47.379Z,97.39
2022-12-12T03:27:40.271Z,97.75
2022-12-12T03:30:11.603Z,98.16
2022-12-12T03:33:17.701Z,97.97
2022-12-12T03:35:49.694Z,97.88
2022-12-12T03:38:25.613Z,98.11
2022-12-12T03:41:02.793Z,98.18
2022-12-12T03:43:33.968Z,98.04
2022-12-12T03:46:17.389Z,97.85
2022-12-12T03:49:11.037Z,98.47
2022-12-12T03:51:43.349Z,98.47
2022-12-12T03:55:24.333Z,98.56
2022-12-12T03:58:00.352Z,98.47
2022-12-12T04:00:31.885Z,98.54
2022-12-12T04:03:03.854Z,98.22
2022-12-12T04:05:39.209Z,98.61
2022-12-12T04:08:13.459Z,98.35
2022-12-12T04:11:10.231Z,98.00
2022-12-12T04:14:11.724Z,98.01
2022-12-12T04:16:42.250Z,98.31
2022-12-12T04:19:42.203Z,98.44
2022-12-12T04:22:38.404Z,97.92
2022-12-12T04:25:19.915Z,98.20
2022-12-12T04:27:51.957Z,98.48
2022-12-12T04:30:18.991Z,98.18
2022-12-12T04:32:46.000Z,98.07
2022-12-12T04:35:30.793Z,97.97
2022-12-12T04:38:02.416Z,98.01
2022-12-12T04:40:33.664Z,98.20
2022-12-12T04:43:08.973Z,98.79
2022-12-12T04:45:41.613Z,99.12
2022-12-12T04:48:14.781Z,99.16
2022-12-12T04:50:44.886Z,99.17
2022-12-12T04:53:18.648Z,98.95
2022-12-12T04:55:53.781Z,98.96
2022-12-12T04:58:21.441Z,99.33
2022-12-12T05:00:56.897Z,99.58
2022-12-12T05:03:43.786Z,99.79
2022-12-12T05:06:14.872Z,99.92
2022-12-12T05:08:46.700Z,99.61
2022-12-12T05:11:15.556Z,99.47
2022-12-12T05:13:43.253Z,99.86
2022-12-12T05:16:35.341Z,100.00
2022-12-12T05:19:03.342Z,100.00
2022-12-12T05:21:30.216Z,100.00
2022-12-12T05:23:57.273Z,99.72
2022-12-12T05:26:29.341Z,99.82
2022-12-12T05:28:59.972Z,100.00
2022-12-12T05:31:30.624Z,100.00
2022-12-12T05:33:57.744Z,100.00
2022-12-12T05:36:24.553Z,100.00
2022-12-12T05:38:52.063Z,100.00
2022-12-12T05:41:19.108Z,100.00
2022-12-12T05:43:46.497Z,100.00
2022-12-12T05:46:14.027Z,100.00
2022-12-12T05:48:41.557Z,100.00
2022-12-12T05:51:08.419Z,100.00
2022-12-12T05:53:42.495Z,100.00
2022-12-12T05:56:11.572Z,100.00
2022-12-12T05:58:40.369Z,100.00
2022-12-12T06:01:07.721Z,100.00
2022-12-12T06:03:35.308Z,100.00
2022-12-12T06:06:02.193Z,100.00
2022-12-12T06:08:29.741Z,100.00
2022-12-12T06:10:56.863Z,100.00
2022-12-12T06:13:24.112Z,100.00
2022-12-12T06:15:51.083Z,100.00
2022-12-12T06:18:18.415Z,100.00
2022-12-12T06:20:45.270Z,100.00
2022-12-12T06:23:12.398Z,100.00
2022-12-12T06:25:39.430Z,100.00
2022-12-12T06:28:06.864Z,100.00
2022-12-12T06:30:34.112Z,100.00
2022-12-12T06:33:01.514Z,100.00
2022-12-12T06:35:28.408Z,100.00
2022-12-12T06:37:55.613Z,100.00
2022-12-12T06:40:22.638Z,100.00
2022-12-12T06:42:49.839Z,100.00
2022-12-12T06:45:17.269Z,100.00
2022-12-12T06:47:44.733Z,100.00
2022-12-12T06:50:11.918Z,100.00
2022-12-12T06:52:40.406Z,100.00
2022-12-12T06:55:07.663Z,100.00
2022-12-12T06:57:35.024Z,100.00
2022-12-12T07:00:02.611Z,100.00
2022-12-12T07:02:30.489Z,100.00
2022-12-12T07:04:58.450Z,100.00
2022-12-12T07:07:25.636Z,100.00
2022-12-12T07:09:52.608Z,100.00
2022-12-12T07:12:19.686Z,100.00
2022-12-12T07:14:46.694Z,100.00
2022-12-12T07:17:13.765Z,100.00
2022-12-12T07:19:40.724Z,100.00
2022-12-12T07:22:10.349Z,100.00
2022-12-12T07:24:38.122Z,100.00
2022-12-12T07:27:06.432Z,100.00
2022-12-12T07:29:34.073Z,100.00
2022-12-12T07:32:01.306Z,100.00
2022-12-12T07:34:31.515Z,100.00
2022-12-12T07:37:02.801Z,100.00
2022-12-12T07:39:32.176Z,100.00
2022-12-12T07:42:00.283Z,100.00
2022-12-12T07:44:28.018Z,100.00
2022-12-12T07:46:59.466Z,100.00
2022-12-12T07:49:29.575Z,100.00
2022-12-12T07:51:57.290Z,100.00
2022-12-12T07:54:24.432Z,100.00
2022-12-12T07:56:52.158Z,100.00
2022-12-12T07:59:19.265Z,100.00
2022-12-12T08:01:47.077Z,100.00
2022-12-12T08:04:14.404Z,100.00
2022-12-12T08:06:42.132Z,100.00
2022-12-12T08:09:09.510Z,100.00
2022-12-12T08:11:39.801Z,100.00
2022-12-12T08:14:13.125Z,100.00
2022-12-12T08:16:41.416Z,100.00
2022-12-12T08:19:08.627Z,100.00
2022-12-12T08:21:36.291Z,100.00
2022-12-12T08:24:03.755Z,100.00
2022-12-12T08:26:32.222Z,99.93
2022-12-12T08:28:59.690Z,99.64
2022-12-12T08:31:28.543Z,99.88
2022-12-12T08:33:56.852Z,99.91
2022-12-12T08:36:27.343Z,100.00
2022-12-12T08:38:54.420Z,99.92
2022-12-12T08:41:23.621Z,100.00
2022-12-12T08:43:51.196Z,100.00
2022-12-12T08:46:20.059Z,99.89
2022-12-12T08:48:48.210Z,99.43
2022-12-12T08:51:18.018Z,98.81
2022-12-12T08:53:49.744Z,99.06
2022-12-12T08:56:18.530Z,98.95
2022-12-12T08:58:46.674Z,99.11
2022-12-12T09:01:18.474Z,98.24
2022-12-12T09:03:46.077Z,97.86
2022-12-12T09:06:14.724Z,97.98
2022-12-12T09:08:42.452Z,97.76
2022-12-12T09:11:10.804Z,97.72
2022-12-12T09:13:38.534Z,97.10
2022-12-12T09:16:07.140Z,96.83
2022-12-12T09:18:34.704Z,96.54
2022-12-12T09:21:02.092Z,96.72
2022-12-12T09:23:29.270Z,96.35
2022-12-12T09:25:56.826Z,95.92
2022-12-12T09:28:26.076Z,95.95
2022-12-12T09:30:53.383Z,95.95
2022-12-12T09:33:20.516Z,96.08
2022-12-12T09:35:47.730Z,95.85
2022-12-12T09:38:15.281Z,95.80
2022-12-12T09:41:02.784Z,96.02
2022-12-12T09:43:37.036Z,96.22
2022-12-12T09:46:14.487Z,95.31
2022-12-12T09:48:46.652Z,95.85
2022-12-12T09:51:14.320Z,96.18
2022-12-12T09:53:45.446Z,95.77
2022-12-12T09:56:21.567Z,95.53
2022-12-12T09:59:29.646Z,95.24
2022-12-12T10:02:02.852Z,94.49
2022-12-12T10:04:42.483Z,94.66
2022-12-12T10:07:19.420Z,94.88
2022-12-12T10:09:52.166Z,94.51
2022-12-12T10:12:22.007Z,94.93
2022-12-12T10:14:54.526Z,95.15
2022-12-12T10:17:43.065Z,94.05
2022-12-12T10:20:24.409Z,93.24
2022-12-12T10:23:09.937Z,93.57
2022-12-12T10:25:44.160Z,93.15
2022-12-12T10:28:15.275Z,92.67
2022-12-12T10:31:09.887Z,93.04
2022-12-12T10:34:05.571Z,93.57
2022-12-12T10:36:58.586Z,93.75
2022-12-12T10:40:01.639Z,92.67
2022-12-12T10:42:48.468Z,92.60
2022-12-12T10:45:41.728Z,92.70
2022-12-12T10:48:08.699Z,92.90
2022-12-12T10:50:42.360Z,93.18
2022-12-12T10:53:11.842Z,93.38
2022-12-12T10:56:00.724Z,92.78
2022-12-12T10:58:39.621Z,92.53
2022-12-12T11:01:32.902Z,92.83
2022-12-12T11:04:08.628Z,92.05
2022-12-12T11:06:38.521Z,92.14
2022-12-12T11:09:18.176Z,91.86
2022-12-12T11:12:04.727Z,92.27
2022-12-12T11:14:41.186Z,91.90
2022-12-12T11:17:30.983Z,92.10
2022-12-12T11:20:01.539Z,92.43
2022-12-12T11:22:33.471Z,92.36
2022-12-12T11:25:00.969Z,92.99
2022-12-12T11:27:35.672Z,92.36
2022-12-12T11:30:05.894Z,92.56
2022-12-12T11:32:43.140Z,92.99
2022-12-12T11:35:47.520Z,93.41
2022-12-12T11:38:28.241Z,93.74
2022-12-12T11:41:04.691Z,93.85
2022-12-12T11:43:54.338Z,93.50
2022-12-12T11:46:27.852Z,93.97
2022-12-12T11:48:59.306Z,94.11
2022-12-12T11:51:39.814Z,94.95
2022-12-12T11:54:13.162Z,94.96
2022-12-12T11:57:04.736Z,95.05
2022-12-12T11:59:37.613Z,94.98
2022-12-12T12:02:42.656Z,95.36
2022-12-12T12:05:25.119Z,95.36
2022-12-12T12:08:28.971Z,95.47
2022-12-12T12:11:02.053Z,95.66
2022-12-12T12:13:39.380Z,95.93
2022-12-12T12:16:21.685Z,96.14
2022-12-12T12:19:25.924Z,96.13
2022-12-12T12:22:38.065Z,96.62
2022-12-12T12:25:30.298Z,97.34
2022-12-12T12:27:57.526Z,96.75
2022-12-12T12:30:48.931Z,96.81
2022-12-12T12:33:30.184Z,96.97
2022-12-12T12:36:06.676Z,97.17
2022-12-12T12:38:51.731Z,97.33
2022-12-12T12:41:18.533Z,97.84
2022-12-12T12:43:54.870Z,97.83
2022-12-12T12:46:28.312Z,98.00
2022-12-12T12:49:03.129Z,97.85
2022-12-12T12:51:45.556Z,98.52
2022-12-12T12:54:56.963Z,99.63
2022-12-12T12:57:39.065Z,100.00
2022-12-12T13:00:15.943Z,100.00
2022-12-12T13:03:06.240Z,100.00
2022-12-12T13:05:44.045Z,100.00
2022-12-12T13:08:22.982Z,100.00
2022-12-12T13:10:55.301Z,100.00
2022-12-12T13:13:31.649Z,100.00
2022-12-12T13:16:05.129Z,100.00
2022-12-12T13:18:45.012Z,100.00
2022-12-12T13:21:30.350Z,100.00
2022-12-12T13:24:25.404Z,100.00
2022-12-12T13:27:15.419Z,100.00
2022-12-12T13:29:48.832Z,100.00
2022-12-12T13:32:47.132Z,100.00
2022-12-12T13:35:34.486Z,100.00
2022-12-12T13:38:03.216Z,100.00
2022-12-12T13:40:43.064Z,100.00
2022-12-12T13:43:38.028Z,100.00
2022-12-12T13:46:29.263Z,100.00
2022-12-12T13:49:03.489Z,100.00
2022-12-12T13:51:33.718Z,100.00
2022-12-12T13:54:24.350Z,100.00
2022-12-12T13:56:57.624Z,100.00
2022-12-12T13:59:27.667Z,100.00
2022-12-12T14:02:03.516Z,100.00
2022-12-12T14:04:36.812Z,100.00
2022-12-12T14:07:12.690Z,100.00
2022-12-12T14:10:18.500Z,100.00
2022-12-12T14:12:46.063Z,100.00
2022-12-12T14:15:29.789Z,100.00
2022-12-12T14:17:59.738Z,100.00
2022-12-12T14:20:29.456Z,100.00
2022-12-12T14:22:59.263Z,100.00
2022-12-12T14:25:44.234Z,100.00
2022-12-12T14:28:23.129Z,100.00
2022-12-12T14:31:11.691Z,100.00
2022-12-12T14:34:06.004Z,100.00
2022-12-12T14:36:36.022Z,100.00
2022-12-12T14:39:15.050Z,100.00
2022-12-12T14:41:45.801Z,100.00
2022-12-12T14:44:36.995Z,100.00
2022-12-12T14:47:09.332Z,100.00
2022-12-12T14:49:36.578Z,100.00
2022-12-12T14:52:04.117Z,100.00
2022-12-12T14:54:31.630Z,100.00
2022-12-12T14:56:59.662Z,100.00
2022-12-12T14:59:41.131Z,100.00
2022-12-12T15:02:33.840Z,100.00
2022-12-12T15:05:06.985Z,100.00
2022-12-12T15:07:41.259Z,100.00
2022-12-12T15:10:24.501Z,100.00
2022-12-12T15:12:51.717Z,100.00
2022-12-12T15:15:36.872Z,100.00
2022-12-12T15:18:04.192Z,100.00
2022-12-12T15:20:32.386Z,100.00
2022-12-12T15:23:05.879Z,100.00
2022-12-12T15:25:47.212Z,100.00
2022-12-12T15:28:20.293Z,100.00
2022-12-12T15:30:51.886Z,100.00
2022-12-12T15:33:24.492Z,100.00
2022-12-12T15:35:59.654Z,100.00
2022-12-12T15:38:29.261Z,100.00
2022-12-12T15:40:59.157Z,100.00
2022-12-12T15:43:29.239Z,100.00
2022-12-12T15:45:58.530Z,100.00
2022-12-12T15:48:26.715Z,100.00
2022-12-12T15:51:04.424Z,100.00
2022-12-12T15:53:37.751Z,100.00
2022-12-12T15:56:11.784Z,100.00
2022-12-12T15:59:00.866Z,100.00
2022-12-12T16:01:29.956Z,100.00
2022-12-12T16:04:03.968Z,100.00
2022-12-12T16:06:42.209Z,100.00
2022-12-12T16:09:12.134Z,100.00
2022-12-12T16:11:52.391Z,100.00
2022-12-12T16:14:42.768Z,100.00
2022-12-12T16:17:16.152Z,100.00
2022-12-12T16:19:55.664Z,100.00
2022-12-12T16:22:36.292Z,100.00
2022-12-12T16:25:27.564Z,100.00
2022-12-12T16:28:02.631Z,100.00
2022-12-12T16:30:29.953Z,100.00
2022-12-12T16:32:56.959Z,100.00
2022-12-12T16:35:25.150Z,100.00
2022-12-12T16:37:55.111Z,100.00
2022-12-12T16:40:22.470Z,100.00
2022-12-12T16:43:12.032Z,100.00
2022-12-12T16:45:40.468Z,100.00
2022-12-12T16:48:27.693Z,100.00
2022-12-12T16:51:01.780Z,100.00
2022-12-12T16:53:28.689Z,100.00
2022-12-12T16:55:56.131Z,100.00
2022-12-12T16:58:23.082Z,100.00
2022-12-12T17:00:55.199Z,100.00
2022-12-12T17:03:23.631Z,100.00
2022-12-12T17:05:51.827Z,100.00
2022-12-12T17:08:19.997Z,100.00
2022-12-12T17:10:49.255Z,100.00
2022-12-12T17:13:26.709Z,100.00
2022-12-12T17:15:55.582Z,100.00
2022-12-12T17:18:23.164Z,100.00
2022-12-12T17:20:50.590Z,100.00
2022-12-12T17:23:28.480Z,100.00
2022-12-12T17:26:01.072Z,100.00
2022-12-12T17:28:32.411Z,100.00
2022-12-12T17:31:00.265Z,100.00
2022-12-12T17:33:27.264Z,100.00
2022-12-12T17:36:02.777Z,100.00
2022-12-12T17:38:30.982Z,100.00
2022-12-12T17:40:58.375Z,100.00
2022-12-12T17:43:25.900Z,100.00
2022-12-12T17:46:07.591Z,100.00
2022-12-12T17:48:35.582Z,100.00
2022-12-12T17:51:05.657Z,100.00
2022-12-12T17:53:38.406Z,100.00
2022-12-12T17:56:08.566Z,100.00
2022-12-12T17:58:37.229Z,100.00
2022-12-12T18:01:22.888Z,100.00
2022-12-12T18:03:50.605Z,100.00
2022-12-12T18:06:19.610Z,100.00
2022-12-12T18:08:47.108Z,100.00
2022-12-12T18:11:17.925Z,100.00
2022-12-12T18:13:45.736Z,100.00
2022-12-12T18:16:13.151Z,100.00
2022-12-12T18:18:40.697Z,100.00
2022-12-12T18:21:23.508Z,100.00
2022-12-12T18:24:01.426Z,100.00
2022-12-12T18:26:29.229Z,100.00
2022-12-12T18:29:02.737Z,100.00
2022-12-12T18:31:31.199Z,100.00
2022-12-12T18:33:58.471Z,100.00
2022-12-12T18:36:28.532Z,100.00
2022-12-12T18:38:57.615Z,100.00
2022-12-12T18:41:26.315Z,100.00
2022-12-12T18:43:54.096Z,100.00
2022-12-12T18:46:24.346Z,100.00
2022-12-12T18:48:51.235Z,100.00
2022-12-12T18:51:24.000Z,99.67
2022-12-12T18:53:52.477Z,99.76
2022-12-12T18:56:25.765Z,99.80
2022-12-12T18:58:55.925Z,99.39
2022-12-12T19:01:26.094Z,99.79
2022-12-12T19:03:56.818Z,99.90
2022-12-12T19:06:31.760Z,99.73
2022-12-12T19:08:58.761Z,99.49
2022-12-12T19:11:25.970Z,99.56
2022-12-12T19:13:52.860Z,99.79
2022-12-12T19:16:20.869Z,99.70
2022-12-12T19:18:48.378Z,99.63
2022-12-12T19:21:19.004Z,99.55
2022-12-12T19:23:46.427Z,99.60
2022-12-12T19:26:25.280Z,99.01
2022-12-12T19:28:55.830Z,99.36
2022-12-12T19:31:24.586Z,99.60
2022-12-12T19:33:52.369Z,99.06
2022-12-12T19:36:22.308Z,99.06
2022-12-12T19:38:50.010Z,99.25
2022-12-12T19:41:19.108Z,99.47
2022-12-12T19:43:49.018Z,99.79
2022-12-12T19:46:20.171Z,99.53
2022-12-12T19:48:48.138Z,99.67
2022-12-12T19:51:21.604Z,99.79
2022-12-12T19:53:55.651Z,99.59
2022-12-12T19:56:26.133Z,99.91
2022-12-12T19:58:53.378Z,100.00
2022-12-12T20:01:23.289Z,100.00
2022-12-12T20:03:52.837Z,99.93
2022-12-12T20:06:21.032Z,99.47
2022-12-12T20:08:48.349Z,99.14
2022-12-12T20:11:18.506Z,99.60
2022-12-12T20:13:53.001Z,99.61
2022-12-12T20:16:23.754Z,99.49
2022-12-12T20:18:51.081Z,99.29
2022-12-12T20:21:58.678Z,99.44
2022-12-12T20:24:10.317Z,99.43
2022-12-12T20:26:39.432Z,99.26
2022-12-12T20:29:07.497Z,99.12
2022-12-12T20:31:38.514Z,99.16
2022-12-12T20:34:05.896Z,99.50
2022-12-12T20:36:34.954Z,99.30
2022-12-12T20:39:06.989Z,99.20
2022-12-12T20:41:37.941Z,99.30
2022-12-12T20:44:06.448Z,99.41
2022-12-12T20:46:39.706Z,99.01
2022-12-12T20:49:09.442Z,98.99
2022-12-12T20:54:24.612Z,98.43
2022-12-12T20:56:56.330Z,97.98
2022-12-12T20:59:24.044Z,98.49
2022-12-12T21:01:52.180Z,98.42
2022-12-12T21:04:19.393Z,98.56
2022-12-12T21:06:51.318Z,98.35
2022-12-12T21:09:25.001Z,98.60
2022-12-12T21:11:55.604Z,98.76
2022-12-12T21:14:23.114Z,98.44
2022-12-12T21:16:50.788Z,98.52
2022-12-12T21:19:19.010Z,98.76
2022-12-12T21:21:46.486Z,99.08
2022-12-12T21:24:16.735Z,99.22
2022-12-12T21:26:45.295Z,99.14
2022-12-12T21:29:12.651Z,98.71
2022-12-12T21:31:51.093Z,98.80
2022-12-12T21:34:21.542Z,98.80
2022-12-12T21:36:55.922Z,98.98
2022-12-12T21:39:28.634Z,98.80
2022-12-12T21:41:56.706Z,98.90
2022-12-12T21:44:24.221Z,98.93
2022-12-12T21:46:51.561Z,99.02
2022-12-12T21:49:27.769Z,98.78
2022-12-12T21:52:00.850Z,98.91
2022-12-12T21:54:31.717Z,99.22
2022-12-12T21:57:00.380Z,99.55
2022-12-12T21:59:28.115Z,99.41
2022-12-12T22:01:57.360Z,99.47
2022-12-12T22:04:25.498Z,99.22
2022-12-12T22:06:52.912Z,98.73
2022-12-12T22:09:22.204Z,98.90
2022-12-12T22:11:52.213Z,99.09
2022-12-12T22:14:30.060Z,98.74
2022-12-12T22:16:57.165Z,98.75
2022-12-12T22:19:24.806Z,98.61
2022-12-12T22:21:52.004Z,98.41
2022-12-12T22:24:18.966Z,98.92
2022-12-12T22:26:48.625Z,98.91
2022-12-12T22:29:18.624Z,98.71
2022-12-12T22:31:46.623Z,99.08
2022-12-12T22:34:19.979Z,98.60
2022-12-12T22:36:47.828Z,98.67
2022-12-12T22:39:17.960Z,98.84
2022-12-12T22:41:45.534Z,98.52
2022-12-12T22:44:15.725Z,98.92
2022-12-12T22:46:45.105Z,98.60
2022-12-12T22:49:18.795Z,98.41
2022-12-12T22:51:46.943Z,97.99
2022-12-12T22:54:14.111Z,97.93
2022-12-12T22:56:42.126Z,97.90
2022-12-12T22:59:11.420Z,97.65
2022-12-12T23:01:39.059Z,97.67
2022-12-12T23:04:06.341Z,97.79
2022-12-12T23:06:35.890Z,97.82
2022-12-12T23:09:07.218Z,98.17
2022-12-12T23:11:35.669Z,98.27
2022-12-12T23:14:07.697Z,97.87
2022-12-12T23:16:36.146Z,98.43
2022-12-12T23:19:05.725Z,98.19
2022-12-12T23:21:34.125Z,98.25
2022-12-12T23:24:01.300Z,98.02
2022-12-12T23:26:30.372Z,97.82
2022-12-12T23:28:58.781Z,98.11
2022-12-12T23:31:29.939Z,98.01
2022-12-12T23:34:03.901Z,98.11
2022-12-12T23:36:32.215Z,98.11
2022-12-12T23:39:06.407Z,97.97
2022-12-12T23:41:35.103Z,97.89
2022-12-12T23:44:02.902Z,97.60
2022-12-12T23:46:33.008Z,97.16
2022-12-12T23:49:02.805Z,96.99
2022-12-12T23:51:31.828Z,96.75
2022-12-12T23:54:00.407Z,96.67
2022-12-12T23:56:28.533Z,96.86
2022-12-12T23:58:56.611Z,96.64
